Warfield, Kentucky
Current Conditions -  °F | °C
As of 12:00 AM on Tuesday 23 Dec 2014 (Local Time) from KSJS Reporting Station
Overcast Overcast  
Wind Chill: 51°   Ceiling: 12000
Heat Index: 51°   Visibility: 10mi
Dew Point: 40°   Wind: 8mph
Humidity: 65%   Direction: 140°SE
Pressure: 29.81"   Gusts: NA
Location:  37.84°N, 82.42°W
Report Text: KSJS 230500Z AUTO 14007KT 10SM SCT070 SCT085 OVC120 11/04 A2981 RMK AO2 T01070043
Loading
Personal Weather Stations






























Interactive Weather Map New forecast layout! Learn more

10-Day Weather Forecast

Advertisements
Track Severe Weather on mobile